createdAt,value
2023-03-03T00:01:22.074Z,12.00
2023-03-03T00:03:50.307Z,11.32
2023-03-03T00:06:18.543Z,11.70
2023-03-03T00:08:46.912Z,11.30
2023-03-03T00:11:15.277Z,11.25
2023-03-03T00:13:47.620Z,11.65
2023-03-03T00:16:22.158Z,12.38
2023-03-03T00:18:51.141Z,13.25
2023-03-03T00:21:29.308Z,10.98
2023-03-03T00:24:19.166Z,11.80
2023-03-03T00:26:49.056Z,10.63
2023-03-03T00:29:35.879Z,12.02
2023-03-03T00:32:27.252Z,12.07
2023-03-03T00:34:56.734Z,11.48
2023-03-03T00:37:31.507Z,12.50
2023-03-03T00:40:22.684Z,11.77
2023-03-03T00:42:53.139Z,12.38
2023-03-03T00:45:28.766Z,12.35
2023-03-03T00:47:59.409Z,12.15
2023-03-03T00:50:36.861Z,11.68
2023-03-03T00:53:07.935Z,11.65
2023-03-03T00:55:37.141Z,12.07
2023-03-03T00:58:06.131Z,11.20
2023-03-03T01:00:34.651Z,11.00
2023-03-03T01:03:06.813Z,11.13
2023-03-03T01:05:35.585Z,12.20
2023-03-03T01:08:04.317Z,11.88
2023-03-03T01:10:34.784Z,11.00
2023-03-03T01:13:03.088Z,10.77
2023-03-03T01:15:31.439Z,11.63
2023-03-03T01:17:59.697Z,11.35
2023-03-03T01:20:29.487Z,11.05
2023-03-03T01:22:57.711Z,11.10
2023-03-03T01:25:25.903Z,10.48
2023-03-03T01:27:54.134Z,11.65
2023-03-03T01:30:22.549Z,12.02
2023-03-03T01:32:50.836Z,11.23
2023-03-03T01:35:19.581Z,12.60
2023-03-03T01:37:49.224Z,11.73
2023-03-03T01:40:20.799Z,11.30
2023-03-03T01:42:49.394Z,10.35
2023-03-03T01:45:22.241Z,11.38
2023-03-03T01:47:55.021Z,10.80
2023-03-03T01:50:33.943Z,11.13
2023-03-03T01:53:07.623Z,11.63
2023-03-03T01:55:38.551Z,11.80
2023-03-03T01:58:10.535Z,12.13
2023-03-03T02:00:41.915Z,11.40
2023-03-03T02:03:10.983Z,11.63
2023-03-03T02:05:41.264Z,11.38
2023-03-03T02:08:14.636Z,12.02
2023-03-03T02:10:46.091Z,12.60
2023-03-03T02:13:14.659Z,11.25
2023-03-03T02:15:42.904Z,12.33
2023-03-03T02:18:13.458Z,12.30
2023-03-03T02:20:54.118Z,11.93
2023-03-03T02:23:28.426Z,11.60
2023-03-03T02:26:10.960Z,11.20
2023-03-03T02:28:40.265Z,10.77
2023-03-03T02:31:13.361Z,12.02
2023-03-03T02:33:42.768Z,11.35
2023-03-03T02:36:14.000Z,11.45
2023-03-03T02:38:47.624Z,11.98
2023-03-03T02:41:28.310Z,12.27
2023-03-03T02:44:00.478Z,11.27
2023-03-03T02:46:28.738Z,12.18
2023-03-03T02:48:56.904Z,11.48
2023-03-03T02:51:25.342Z,11.40
2023-03-03T02:53:53.682Z,11.25
2023-03-03T02:56:23.603Z,12.20
2023-03-03T02:58:52.255Z,10.93
2023-03-03T03:01:20.859Z,11.00
2023-03-03T03:03:49.470Z,11.32
2023-03-03T03:06:17.733Z,12.25
2023-03-03T03:08:46.011Z,11.80
2023-03-03T03:11:14.235Z,10.90
2023-03-03T03:13:43.864Z,12.43
2023-03-03T03:16:12.159Z,12.15
2023-03-03T03:18:41.733Z,11.30
2023-03-03T03:21:11.803Z,10.77
2023-03-03T03:23:40.473Z,10.75
2023-03-03T03:26:09.089Z,10.07
2023-03-03T03:28:37.987Z,10.23
2023-03-03T03:31:08.814Z,10.52
2023-03-03T03:33:37.658Z,10.90
2023-03-03T03:36:07.155Z,11.55
2023-03-03T03:38:36.775Z,10.13
2023-03-03T03:41:06.256Z,10.20
2023-03-03T03:43:34.883Z,10.32
2023-03-03T03:46:03.364Z,10.13
2023-03-03T03:48:33.068Z,10.50
2023-03-03T03:51:01.365Z,10.53
2023-03-03T03:53:29.616Z,11.27
2023-03-03T03:55:58.062Z,9.93
2023-03-03T03:58:26.317Z,10.40
2023-03-03T04:00:54.577Z,8.53
2023-03-03T04:03:23.006Z,8.97
2023-03-03T04:05:54.105Z,10.00
2023-03-03T04:08:22.426Z,9.20
2023-03-03T04:10:50.701Z,10.47
2023-03-03T04:13:18.925Z,9.60
2023-03-03T04:15:47.200Z,9.33
2023-03-03T04:18:15.607Z,9.67
2023-03-03T04:20:43.985Z,9.20
2023-03-03T04:23:14.888Z,9.33
2023-03-03T04:25:43.135Z,9.73
2023-03-03T04:28:11.383Z,9.45
2023-03-03T04:30:39.707Z,9.25
2023-03-03T04:33:08.314Z,9.15
2023-03-03T04:35:36.569Z,8.52
2023-03-03T04:38:05.101Z,9.10
2023-03-03T04:40:34.756Z,8.80
2023-03-03T04:43:02.991Z,8.85
2023-03-03T04:45:31.289Z,10.83
2023-03-03T04:47:59.548Z,10.50
2023-03-03T04:50:28.562Z,9.80
2023-03-03T04:52:56.799Z,9.63
2023-03-03T04:55:25.185Z,9.93
2023-03-03T04:57:54.912Z,11.15
2023-03-03T05:00:23.327Z,11.43
2023-03-03T05:02:51.593Z,10.70
2023-03-03T05:05:19.983Z,10.03
2023-03-03T05:07:48.223Z,9.65
2023-03-03T05:10:16.609Z,8.95
2023-03-03T05:12:45.359Z,8.52
2023-03-03T05:15:15.096Z,7.38
2023-03-03T05:17:43.418Z,8.13
2023-03-03T05:20:13.491Z,8.80
2023-03-03T05:22:41.825Z,8.00
2023-03-03T05:25:12.704Z,9.95
2023-03-03T05:27:40.948Z,9.55
2023-03-03T05:30:10.599Z,9.13
2023-03-03T05:32:40.426Z,10.90
2023-03-03T05:35:09.229Z,10.95
2023-03-03T05:37:37.437Z,10.88
2023-03-03T05:40:06.780Z,11.73
2023-03-03T05:42:35.066Z,10.45
2023-03-03T05:45:03.340Z,10.32
2023-03-03T05:47:31.564Z,9.98
2023-03-03T05:50:01.505Z,9.63
2023-03-03T05:52:30.031Z,9.63
2023-03-03T05:54:58.414Z,9.43
2023-03-03T05:57:26.761Z,9.35
2023-03-03T05:59:55.024Z,9.35
2023-03-03T06:02:23.478Z,9.07
2023-03-03T06:04:51.674Z,9.37
2023-03-03T06:07:21.271Z,9.00
2023-03-03T06:09:49.559Z,9.88
2023-03-03T06:12:17.884Z,9.48
2023-03-03T06:14:46.126Z,9.98
2023-03-03T06:17:14.356Z,9.60
2023-03-03T06:19:42.682Z,10.88
2023-03-03T06:22:11.240Z,10.17
2023-03-03T06:24:40.996Z,10.20
2023-03-03T06:27:10.333Z,11.17
2023-03-03T06:29:38.579Z,11.38
2023-03-03T06:32:07.372Z,10.30
2023-03-03T06:34:35.782Z,10.55
2023-03-03T06:37:04.145Z,10.93
2023-03-03T06:39:32.418Z,10.27
2023-03-03T06:42:02.115Z,10.05
2023-03-03T06:44:30.366Z,10.32
2023-03-03T06:46:59.027Z,8.63
2023-03-03T06:49:27.312Z,10.27
2023-03-03T06:51:55.852Z,10.13
2023-03-03T06:54:31.075Z,9.80
2023-03-03T06:57:06.895Z,9.05
2023-03-03T06:59:35.133Z,9.25
2023-03-03T07:02:12.245Z,8.75
2023-03-03T07:04:40.521Z,10.07
2023-03-03T07:07:17.973Z,9.43
2023-03-03T07:09:48.062Z,9.50
2023-03-03T07:12:22.268Z,9.98
2023-03-03T07:14:55.968Z,10.73
2023-03-03T07:17:26.359Z,13.95
2023-03-03T07:19:55.493Z,10.77
2023-03-03T07:22:26.859Z,11.13
2023-03-03T07:24:57.345Z,10.85
2023-03-03T07:27:28.361Z,11.43
2023-03-03T07:30:02.828Z,11.57
2023-03-03T07:32:40.380Z,11.52
2023-03-03T07:35:44.741Z,11.70
2023-03-03T07:38:24.459Z,12.05
2023-03-03T07:40:54.745Z,11.82
2023-03-03T07:43:34.907Z,12.02
2023-03-03T07:46:29.389Z,12.35
2023-03-03T07:48:58.839Z,12.40
2023-03-03T07:51:29.363Z,12.50
2023-03-03T07:54:14.834Z,12.00
2023-03-03T07:56:43.108Z,12.55
2023-03-03T07:59:22.258Z,11.85
2023-03-03T08:01:55.339Z,11.60
2023-03-03T08:04:26.447Z,12.77
2023-03-03T08:06:56.577Z,12.18
2023-03-03T08:09:44.059Z,11.55
2023-03-03T08:12:30.969Z,11.98
2023-03-03T08:15:15.962Z,11.48
2023-03-03T08:17:45.573Z,11.85
2023-03-03T08:20:44.573Z,11.45
2023-03-03T08:23:13.450Z,10.68
2023-03-03T08:25:42.926Z,11.52
2023-03-03T08:28:11.859Z,12.63
2023-03-03T08:30:41.582Z,12.07
2023-03-03T08:33:09.918Z,11.95
2023-03-03T08:35:38.374Z,13.07
2023-03-03T08:38:07.552Z,11.88
2023-03-03T08:40:36.276Z,11.65
2023-03-03T08:43:05.602Z,12.75
2023-03-03T08:45:34.900Z,13.40
2023-03-03T08:48:06.231Z,13.70
2023-03-03T08:50:34.597Z,13.15
2023-03-03T08:53:02.872Z,12.55
2023-03-03T08:55:31.159Z,13.18
2023-03-03T08:57:59.550Z,13.60
2023-03-03T09:00:27.826Z,13.00
2023-03-03T09:02:56.813Z,13.85
2023-03-03T09:05:26.845Z,13.98
2023-03-03T09:07:56.412Z,12.65
2023-03-03T09:10:29.557Z,15.23
2023-03-03T09:13:01.256Z,12.73
2023-03-03T09:18:01.308Z,13.30
2023-03-03T09:20:35.391Z,15.23
2023-03-03T09:23:31.445Z,15.45
2023-03-03T09:26:12.538Z,14.60
2023-03-03T09:28:40.844Z,14.63
2023-03-03T09:31:25.510Z,14.02
2023-03-03T09:33:57.679Z,14.02
2023-03-03T09:36:29.310Z,13.88
2023-03-03T09:38:58.515Z,15.00
2023-03-03T09:41:47.915Z,14.68
2023-03-03T09:44:38.056Z,13.95
2023-03-03T09:47:27.256Z,14.32
2023-03-03T09:50:06.716Z,13.75
2023-03-03T09:52:52.510Z,15.38
2023-03-03T09:55:37.010Z,14.88
2023-03-03T09:58:31.890Z,14.85
2023-03-03T10:01:11.288Z,14.18
2023-03-03T10:03:56.522Z,14.45
2023-03-03T10:06:29.244Z,14.60
2023-03-03T10:09:18.120Z,15.52
2023-03-03T10:11:50.817Z,15.25
2023-03-03T10:14:40.818Z,16.17
2023-03-03T10:17:24.096Z,14.38
2023-03-03T10:20:05.639Z,15.23
2023-03-03T10:22:45.471Z,16.08
2023-03-03T10:25:26.607Z,14.23
2023-03-03T10:28:30.450Z,15.75
2023-03-03T10:31:13.622Z,15.00
2023-03-03T10:33:51.068Z,15.18
2023-03-03T10:36:40.923Z,15.50
2023-03-03T10:39:26.659Z,15.32
2023-03-03T10:42:21.157Z,15.43
2023-03-03T10:45:23.322Z,14.82
2023-03-03T10:50:28.699Z,13.15
2023-03-03T10:53:11.042Z,15.15
2023-03-03T10:55:50.230Z,16.30
2023-03-03T10:58:52.960Z,15.93
2023-03-03T11:01:30.973Z,15.55
2023-03-03T11:04:26.498Z,16.25
2023-03-03T11:07:02.511Z,16.83
2023-03-03T11:09:43.321Z,15.65
2023-03-03T11:12:24.747Z,16.20
2023-03-03T11:15:07.462Z,15.85
2023-03-03T11:17:51.683Z,16.80
2023-03-03T11:20:32.764Z,16.80
2023-03-03T11:23:12.999Z,17.20
2023-03-03T11:25:50.674Z,17.58
2023-03-03T11:28:35.356Z,18.75
2023-03-03T11:31:19.797Z,17.02
2023-03-03T11:33:58.088Z,16.48
2023-03-03T11:36:34.626Z,18.38
2023-03-03T11:39:05.913Z,19.15
2023-03-03T11:41:37.749Z,18.70
2023-03-03T11:44:22.204Z,18.77
2023-03-03T11:46:55.114Z,19.52
2023-03-03T11:49:29.892Z,19.83
2023-03-03T11:52:06.643Z,19.50
2023-03-03T11:54:44.231Z,18.92
2023-03-03T11:57:20.467Z,19.73
2023-03-03T12:00:33.416Z,20.67
2023-03-03T12:03:17.852Z,19.48
2023-03-03T12:05:58.702Z,19.73
2023-03-03T12:08:44.306Z,18.83
2023-03-03T12:11:23.952Z,18.05
2023-03-03T12:13:59.193Z,18.98
2023-03-03T12:16:42.173Z,19.08
2023-03-03T12:19:45.104Z,18.90
2023-03-03T12:22:29.759Z,19.45
2023-03-03T12:25:19.744Z,18.17
2023-03-03T12:27:55.965Z,18.98
2023-03-03T12:30:38.627Z,18.35
2023-03-03T12:33:19.393Z,19.08
2023-03-03T12:35:57.985Z,18.90
2023-03-03T12:38:37.249Z,18.20
2023-03-03T12:41:09.958Z,18.90
2023-03-03T12:43:51.583Z,19.20
2023-03-03T12:46:29.313Z,17.70
2023-03-03T12:48:57.848Z,18.80
2023-03-03T12:51:39.037Z,18.63
2023-03-03T12:54:19.249Z,19.02
2023-03-03T12:56:53.062Z,19.73
2023-03-03T12:59:26.764Z,19.65
2023-03-03T13:02:06.880Z,19.42
2023-03-03T13:04:39.259Z,19.02
2023-03-03T13:07:17.127Z,19.90
2023-03-03T13:10:01.370Z,20.25
2023-03-03T13:12:39.481Z,18.92
2023-03-03T13:15:17.229Z,18.95
2023-03-03T13:17:56.912Z,19.50
2023-03-03T13:20:39.634Z,19.42
2023-03-03T13:23:14.666Z,18.67
2023-03-03T13:25:51.720Z,19.80
2023-03-03T13:28:29.952Z,17.85
2023-03-03T13:31:04.208Z,19.63
2023-03-03T13:33:36.658Z,19.00
2023-03-03T13:36:10.170Z,18.92
2023-03-03T13:38:43.761Z,19.02
2023-03-03T13:41:18.658Z,18.90
2023-03-03T13:43:50.772Z,19.42
2023-03-03T13:46:28.278Z,18.77
2023-03-03T13:49:15.678Z,18.60
2023-03-03T13:51:50.928Z,18.65
2023-03-03T13:54:41.103Z,19.33
2023-03-03T13:57:22.845Z,18.02
2023-03-03T14:00:05.537Z,18.40
2023-03-03T14:02:51.100Z,19.13
2023-03-03T14:05:27.189Z,17.58
2023-03-03T14:08:00.428Z,18.83
2023-03-03T14:10:33.367Z,18.17
2023-03-03T14:13:06.516Z,18.08
2023-03-03T14:15:37.881Z,18.95
2023-03-03T14:18:25.245Z,18.80
2023-03-03T14:20:55.051Z,18.60
2023-03-03T14:23:29.032Z,18.45
2023-03-03T14:26:09.701Z,18.52
2023-03-03T14:28:44.112Z,19.25
2023-03-03T14:31:19.647Z,17.75
2023-03-03T14:33:59.256Z,18.75
2023-03-03T14:36:30.842Z,18.58
2023-03-03T14:41:42.301Z,17.60
2023-03-03T14:44:26.967Z,17.83
2023-03-03T14:47:23.153Z,18.35
2023-03-03T14:49:52.078Z,18.25
2023-03-03T14:52:25.451Z,18.75
2023-03-03T14:54:55.717Z,18.85
2023-03-03T14:57:46.326Z,19.55
2023-03-03T15:00:31.324Z,19.00
2023-03-03T15:03:06.755Z,20.90
2023-03-03T15:05:35.860Z,18.25
2023-03-03T15:08:12.388Z,18.58
2023-03-03T15:10:42.031Z,20.25
2023-03-03T15:13:34.908Z,18.35
2023-03-03T15:16:10.221Z,19.25
2023-03-03T15:19:14.254Z,19.40
2023-03-03T15:21:49.494Z,18.65
2023-03-03T15:24:25.886Z,19.30
2023-03-03T15:27:02.357Z,19.52
2023-03-03T15:29:38.378Z,18.55
2023-03-03T15:32:14.918Z,18.65
2023-03-03T15:34:48.921Z,19.45
2023-03-03T15:37:29.658Z,19.30
2023-03-03T15:40:05.105Z,19.63
2023-03-03T15:42:39.342Z,19.58
2023-03-03T15:45:18.363Z,20.13
2023-03-03T15:48:04.076Z,20.20
2023-03-03T15:50:42.367Z,18.13
2023-03-03T15:53:24.696Z,19.20
2023-03-03T15:56:08.965Z,19.10
2023-03-03T15:59:18.675Z,19.48
2023-03-03T16:01:54.206Z,19.95
2023-03-03T16:04:27.279Z,19.77
2023-03-03T16:07:01.836Z,20.33
2023-03-03T16:09:44.541Z,18.92
2023-03-03T16:12:19.770Z,18.92
2023-03-03T16:15:14.353Z,18.60
2023-03-03T16:17:51.034Z,19.33
2023-03-03T16:20:24.502Z,18.90
2023-03-03T16:23:06.294Z,18.85
2023-03-03T16:25:49.273Z,19.60
2023-03-03T16:28:24.000Z,18.55
2023-03-03T16:30:59.528Z,19.02
2023-03-03T16:33:37.388Z,18.55
2023-03-03T16:36:13.115Z,19.27
2023-03-03T16:38:45.040Z,18.35
2023-03-03T16:41:16.852Z,17.80
2023-03-03T16:43:52.816Z,18.60
2023-03-03T16:46:31.284Z,17.10
2023-03-03T16:49:06.294Z,17.50
2023-03-03T16:51:43.619Z,17.90
2023-03-03T16:54:19.470Z,16.83
2023-03-03T16:56:53.616Z,17.20
2023-03-03T16:59:51.908Z,17.48
2023-03-03T17:03:04.473Z,17.75
2023-03-03T17:05:43.677Z,16.98
2023-03-03T17:08:32.476Z,17.17
2023-03-03T17:11:09.300Z,18.15
2023-03-03T17:14:04.692Z,16.13
2023-03-03T17:16:52.464Z,16.80
2023-03-03T17:19:33.558Z,17.10
2023-03-03T17:22:18.149Z,17.23
2023-03-03T17:25:01.523Z,17.23
2023-03-03T17:27:38.983Z,16.27
2023-03-03T17:30:15.652Z,17.35
2023-03-03T17:33:00.246Z,16.00
2023-03-03T17:35:47.875Z,17.15
2023-03-03T17:38:25.774Z,15.52
2023-03-03T17:41:04.332Z,16.52
2023-03-03T17:43:41.529Z,16.50
2023-03-03T17:46:17.096Z,16.40
2023-03-03T17:49:25.584Z,17.60
2023-03-03T17:52:09.146Z,18.02
2023-03-03T17:55:04.662Z,18.77
2023-03-03T17:57:45.710Z,17.95
2023-03-03T18:00:31.512Z,16.25
2023-03-03T18:03:29.742Z,17.15
2023-03-03T18:06:25.636Z,17.40
2023-03-03T18:09:15.156Z,18.17
2023-03-03T18:12:00.242Z,16.83
2023-03-03T18:14:53.410Z,17.38
2023-03-03T18:17:37.607Z,18.38
2023-03-03T18:20:37.642Z,18.38
2023-03-03T18:23:31.032Z,19.27
2023-03-03T18:26:01.086Z,18.45
2023-03-03T18:28:47.290Z,17.88
2023-03-03T18:31:25.162Z,17.77
2023-03-03T18:34:04.654Z,17.85
2023-03-03T18:36:55.189Z,17.27
2023-03-03T18:39:41.035Z,17.05
2023-03-03T18:42:43.500Z,17.58
2023-03-03T18:45:49.869Z,16.58
2023-03-03T18:48:20.116Z,17.05
2023-03-03T18:50:49.835Z,17.98
2023-03-03T18:53:22.621Z,17.17
2023-03-03T18:55:52.598Z,17.27
2023-03-03T18:58:33.995Z,17.25
2023-03-03T19:01:15.268Z,17.20
2023-03-03T19:04:17.837Z,16.83
2023-03-03T19:07:24.834Z,17.30
2023-03-03T19:09:58.295Z,15.63
2023-03-03T19:12:52.152Z,15.13
2023-03-03T19:15:57.231Z,15.85
2023-03-03T19:18:28.220Z,14.40
2023-03-03T19:20:59.718Z,16.55
2023-03-03T19:23:50.056Z,15.38
2023-03-03T19:26:38.365Z,15.90
2023-03-03T19:29:20.362Z,15.02
2023-03-03T19:31:53.966Z,15.48
2023-03-03T19:34:29.963Z,15.82
2023-03-03T19:37:12.708Z,16.23
2023-03-03T19:39:51.538Z,16.88
2023-03-03T19:42:36.039Z,16.30
2023-03-03T19:45:18.814Z,17.00
2023-03-03T19:47:52.703Z,16.45
2023-03-03T19:50:34.517Z,16.08
2023-03-03T19:55:44.583Z,15.80
2023-03-03T19:58:23.693Z,16.27
2023-03-03T20:00:58.487Z,17.33
2023-03-03T20:03:49.031Z,17.05
2023-03-03T20:06:37.835Z,16.95
2023-03-03T20:09:17.466Z,18.35
2023-03-03T20:11:59.263Z,19.98
2023-03-03T20:17:43.174Z,19.35
2023-03-03T20:20:41.818Z,16.67
2023-03-03T20:23:23.177Z,16.88
2023-03-03T20:25:57.114Z,17.38
2023-03-03T20:28:53.512Z,16.08
2023-03-03T20:31:29.006Z,16.77
2023-03-03T20:34:08.058Z,15.23
2023-03-03T20:36:44.029Z,15.63
2023-03-03T20:39:21.781Z,15.95
2023-03-03T20:42:06.085Z,15.77
2023-03-03T20:44:54.105Z,15.32
2023-03-03T20:47:35.211Z,14.43
2023-03-03T20:50:16.883Z,14.85
2023-03-03T20:52:57.277Z,14.85
2023-03-03T20:55:35.230Z,15.57
2023-03-03T20:58:08.685Z,15.70
2023-03-03T21:00:43.437Z,16.23
2023-03-03T21:03:17.801Z,15.10
2023-03-03T21:05:58.770Z,15.90
2023-03-03T21:08:45.763Z,15.48
2023-03-03T21:11:17.698Z,15.07
2023-03-03T21:13:47.655Z,15.25
2023-03-03T21:16:31.643Z,14.98
2023-03-03T21:19:01.268Z,14.80
2023-03-03T21:21:31.011Z,14.48
2023-03-03T21:23:59.717Z,13.27
2023-03-03T21:26:49.974Z,14.47
2023-03-03T21:29:20.981Z,14.05
2023-03-03T21:31:50.663Z,13.88
2023-03-03T21:34:20.746Z,13.45
2023-03-03T21:36:50.469Z,15.37
2023-03-03T21:39:25.092Z,14.52
2023-03-03T21:41:57.214Z,13.85
2023-03-03T21:44:40.300Z,14.57
2023-03-03T21:47:10.466Z,14.60
2023-03-03T21:49:42.449Z,16.95
2023-03-03T21:52:11.134Z,15.60
2023-03-03T21:54:39.368Z,15.63
2023-03-03T21:57:09.389Z,15.30
2023-03-03T21:59:37.851Z,15.48
2023-03-03T22:02:07.200Z,17.75
2023-03-03T22:04:38.407Z,20.00
2023-03-03T22:07:07.027Z,20.33
2023-03-03T22:09:35.560Z,19.70
2023-03-03T22:12:04.128Z,15.82
2023-03-03T22:14:33.990Z,14.80
2023-03-03T22:17:02.309Z,14.70
2023-03-03T22:19:30.693Z,14.60
2023-03-03T22:21:59.026Z,14.70
2023-03-03T22:24:27.431Z,14.00
2023-03-03T22:26:55.735Z,15.05
2023-03-03T22:29:24.211Z,13.98
2023-03-03T22:31:53.817Z,14.43
2023-03-03T22:34:22.357Z,15.18
2023-03-03T22:36:50.553Z,14.73
2023-03-03T22:39:18.826Z,14.40
2023-03-03T22:41:47.049Z,15.73
2023-03-03T22:44:15.251Z,13.82
2023-03-03T22:46:43.472Z,14.73
2023-03-03T22:49:13.040Z,15.05
2023-03-03T22:51:41.308Z,14.48
2023-03-03T22:54:09.530Z,14.30
2023-03-03T22:56:37.747Z,13.60
2023-03-03T22:59:06.192Z,13.48
2023-03-03T23:01:34.427Z,13.60
2023-03-03T23:04:02.716Z,14.95
2023-03-03T23:06:32.328Z,15.87
2023-03-03T23:09:00.566Z,14.57
2023-03-03T23:11:29.279Z,15.13
2023-03-03T23:13:57.484Z,16.63
2023-03-03T23:16:25.785Z,14.17
2023-03-03T23:18:54.046Z,14.50
2023-03-03T23:21:22.237Z,14.40
2023-03-03T23:23:52.023Z,15.03
2023-03-03T23:26:20.229Z,16.40
2023-03-03T23:28:48.473Z,17.63
2023-03-03T23:31:16.704Z,23.37
2023-03-03T23:33:44.947Z,21.00
2023-03-03T23:36:13.261Z,20.30
2023-03-03T23:38:43.165Z,20.40
2023-03-03T23:41:13.002Z,18.63
2023-03-03T23:43:41.171Z,15.97
2023-03-03T23:46:09.683Z,15.93
2023-03-03T23:48:37.891Z,15.83
2023-03-03T23:51:06.596Z,16.83
2023-03-03T23:53:34.861Z,18.27
2023-03-03T23:56:03.103Z,15.13
2023-03-03T23:58:32.751Z,15.20
